sensor_id;sensor_type;location;lat;lon;timestamp;temperature;humidity
61398;DHT22;47267;48.130;-2.040;2023-12-07T00:01:34;18.50;48.40
61398;DHT22;47267;48.130;-2.040;2023-12-07T00:04:01;18.50;48.40
61398;DHT22;47267;48.130;-2.040;2023-12-07T00:06:26;18.50;48.40
61398;DHT22;47267;48.130;-2.040;2023-12-07T00:08:52;18.50;48.40
61398;DHT22;47267;48.130;-2.040;2023-12-07T00:11:18;18.50;48.40
61398;DHT22;47267;48.130;-2.040;2023-12-07T00:13:43;18.50;48.40
61398;DHT22;47267;48.130;-2.040;2023-12-07T00:16:10;18.50;48.40
61398;DHT22;47267;48.130;-2.040;2023-12-07T00:18:35;18.50;48.40
61398;DHT22;47267;48.130;-2.040;2023-12-07T00:21:01;18.50;48.40
61398;DHT22;47267;48.130;-2.040;2023-12-07T00:23:27;18.50;48.40
61398;DHT22;47267;48.130;-2.040;2023-12-07T00:25:53;18.40;48.80
61398;DHT22;47267;48.130;-2.040;2023-12-07T00:28:18;18.40;48.40
61398;DHT22;47267;48.130;-2.040;2023-12-07T00:30:44;18.40;48.40
61398;DHT22;47267;48.130;-2.040;2023-12-07T00:33:10;18.40;48.40
61398;DHT22;47267;48.130;-2.040;2023-12-07T00:35:35;18.40;48.40
61398;DHT22;47267;48.130;-2.040;2023-12-07T00:38:02;18.40;48.40
61398;DHT22;47267;48.130;-2.040;2023-12-07T00:40:27;18.40;48.40
61398;DHT22;47267;48.130;-2.040;2023-12-07T00:42:53;18.40;48.40
61398;DHT22;47267;48.130;-2.040;2023-12-07T00:45:19;18.40;48.30
61398;DHT22;47267;48.130;-2.040;2023-12-07T00:47:45;18.40;48.40
61398;DHT22;47267;48.130;-2.040;2023-12-07T00:50:13;18.40;48.30
61398;DHT22;47267;48.130;-2.040;2023-12-07T00:52:40;18.40;48.30
61398;DHT22;47267;48.130;-2.040;2023-12-07T00:55:06;18.40;48.40
61398;DHT22;47267;48.130;-2.040;2023-12-07T00:57:31;18.40;48.30
61398;DHT22;47267;48.130;-2.040;2023-12-07T00:59:57;18.40;48.40
61398;DHT22;47267;48.130;-2.040;2023-12-07T01:02:23;18.30;48.30
61398;DHT22;47267;48.130;-2.040;2023-12-07T01:04:48;18.30;48.40
61398;DHT22;47267;48.130;-2.040;2023-12-07T01:07:14;18.30;48.30
61398;DHT22;47267;48.130;-2.040;2023-12-07T01:09:40;18.30;48.30
61398;DHT22;47267;48.130;-2.040;2023-12-07T01:12:05;18.30;48.30
61398;DHT22;47267;48.130;-2.040;2023-12-07T01:14:31;18.30;48.30
61398;DHT22;47267;48.130;-2.040;2023-12-07T01:16:57;18.30;48.30
61398;DHT22;47267;48.130;-2.040;2023-12-07T01:19:23;18.30;48.30
61398;DHT22;47267;48.130;-2.040;2023-12-07T01:21:50;18.30;48.30
61398;DHT22;47267;48.130;-2.040;2023-12-07T01:24:16;18.30;48.30
61398;DHT22;47267;48.130;-2.040;2023-12-07T01:26:42;18.30;48.30
61398;DHT22;47267;48.130;-2.040;2023-12-07T01:29:07;18.30;48.30
61398;DHT22;47267;48.130;-2.040;2023-12-07T01:31:33;18.30;48.30
61398;DHT22;47267;48.130;-2.040;2023-12-07T01:33:59;18.30;48.30
61398;DHT22;47267;48.130;-2.040;2023-12-07T01:36:25;18.30;48.30
61398;DHT22;47267;48.130;-2.040;2023-12-07T01:38:50;18.30;48.30
61398;DHT22;47267;48.130;-2.040;2023-12-07T01:41:16;18.30;48.30
61398;DHT22;47267;48.130;-2.040;2023-12-07T01:43:46;18.30;48.30
61398;DHT22;47267;48.130;-2.040;2023-12-07T01:46:11;18.30;48.30
61398;DHT22;47267;48.130;-2.040;2023-12-07T01:48:37;18.30;48.30
61398;DHT22;47267;48.130;-2.040;2023-12-07T01:51:03;18.30;48.30
61398;DHT22;47267;48.130;-2.040;2023-12-07T01:53:29;18.30;48.30
61398;DHT22;47267;48.130;-2.040;2023-12-07T01:55:55;18.20;48.20
61398;DHT22;47267;48.130;-2.040;2023-12-07T01:58:22;18.20;48.20
61398;DHT22;47267;48.130;-2.040;2023-12-07T02:00:47;18.30;48.30
61398;DHT22;47267;48.130;-2.040;2023-12-07T02:03:13;18.20;48.20
61398;DHT22;47267;48.130;-2.040;2023-12-07T02:05:48;18.20;48.20
61398;DHT22;47267;48.130;-2.040;2023-12-07T02:08:14;18.20;48.20
61398;DHT22;47267;48.130;-2.040;2023-12-07T02:10:40;18.20;48.20
61398;DHT22;47267;48.130;-2.040;2023-12-07T02:13:06;18.20;48.20
61398;DHT22;47267;48.130;-2.040;2023-12-07T02:15:32;18.20;48.20
61398;DHT22;47267;48.130;-2.040;2023-12-07T02:18:22;18.20;48.20
61398;DHT22;47267;48.130;-2.040;2023-12-07T02:21:08;18.20;48.20
61398;DHT22;47267;48.130;-2.040;2023-12-07T02:23:37;18.20;48.20
61398;DHT22;47267;48.130;-2.040;2023-12-07T02:26:07;18.20;48.20
61398;DHT22;47267;48.130;-2.040;2023-12-07T02:28:34;18.20;48.20
61398;DHT22;47267;48.130;-2.040;2023-12-07T02:31:00;18.20;48.20
61398;DHT22;47267;48.130;-2.040;2023-12-07T02:33:25;18.20;48.20
61398;DHT22;47267;48.130;-2.040;2023-12-07T02:35:51;18.20;48.20
61398;DHT22;47267;48.130;-2.040;2023-12-07T02:38:18;18.20;48.20
61398;DHT22;47267;48.130;-2.040;2023-12-07T02:40:44;18.20;48.20
61398;DHT22;47267;48.130;-2.040;2023-12-07T02:43:12;18.20;48.20
61398;DHT22;47267;48.130;-2.040;2023-12-07T02:45:38;18.20;48.20
61398;DHT22;47267;48.130;-2.040;2023-12-07T02:48:04;18.20;48.20
61398;DHT22;47267;48.130;-2.040;2023-12-07T02:50:30;18.20;48.10
61398;DHT22;47267;48.130;-2.040;2023-12-07T02:52:56;18.20;48.20
61398;DHT22;47267;48.130;-2.040;2023-12-07T02:55:22;18.20;48.20
61398;DHT22;47267;48.130;-2.040;2023-12-07T02:57:49;18.20;48.20
61398;DHT22;47267;48.130;-2.040;2023-12-07T03:00:15;18.20;48.10
61398;DHT22;47267;48.130;-2.040;2023-12-07T03:02:41;18.20;48.20
61398;DHT22;47267;48.130;-2.040;2023-12-07T03:05:07;18.20;48.20
61398;DHT22;47267;48.130;-2.040;2023-12-07T03:07:34;18.20;48.10
61398;DHT22;47267;48.130;-2.040;2023-12-07T03:09:59;18.20;48.20
61398;DHT22;47267;48.130;-2.040;2023-12-07T03:12:25;18.20;48.10
61398;DHT22;47267;48.130;-2.040;2023-12-07T03:14:51;18.20;48.20
61398;DHT22;47267;48.130;-2.040;2023-12-07T03:17:16;18.20;48.10
61398;DHT22;47267;48.130;-2.040;2023-12-07T03:19:42;18.20;48.10
61398;DHT22;47267;48.130;-2.040;2023-12-07T03:22:08;18.20;48.10
61398;DHT22;47267;48.130;-2.040;2023-12-07T03:24:38;18.20;48.10
61398;DHT22;47267;48.130;-2.040;2023-12-07T03:27:04;18.20;48.10
61398;DHT22;47267;48.130;-2.040;2023-12-07T03:29:31;18.20;48.10
61398;DHT22;47267;48.130;-2.040;2023-12-07T03:31:57;18.20;48.20
61398;DHT22;47267;48.130;-2.040;2023-12-07T03:34:23;18.20;48.20
61398;DHT22;47267;48.130;-2.040;2023-12-07T03:36:49;18.20;48.20
61398;DHT22;47267;48.130;-2.040;2023-12-07T03:39:16;18.20;48.10
61398;DHT22;47267;48.130;-2.040;2023-12-07T03:41:44;18.20;48.10
61398;DHT22;47267;48.130;-2.040;2023-12-07T03:44:10;18.20;48.10
61398;DHT22;47267;48.130;-2.040;2023-12-07T03:46:36;18.20;48.10
61398;DHT22;47267;48.130;-2.040;2023-12-07T03:49:01;18.20;48.10
61398;DHT22;47267;48.130;-2.040;2023-12-07T03:51:27;18.20;48.10
61398;DHT22;47267;48.130;-2.040;2023-12-07T03:53:54;18.20;48.20
61398;DHT22;47267;48.130;-2.040;2023-12-07T03:56:30;18.20;48.10
61398;DHT22;47267;48.130;-2.040;2023-12-07T03:58:57;18.20;48.10
61398;DHT22;47267;48.130;-2.040;2023-12-07T04:01:24;18.20;48.10
61398;DHT22;47267;48.130;-2.040;2023-12-07T04:03:50;18.20;48.10
61398;DHT22;47267;48.130;-2.040;2023-12-07T04:06:16;18.20;48.10
61398;DHT22;47267;48.130;-2.040;2023-12-07T04:08:42;18.20;48.20
61398;DHT22;47267;48.130;-2.040;2023-12-07T04:11:08;18.20;48.10
61398;DHT22;47267;48.130;-2.040;2023-12-07T04:13:33;18.20;48.10
61398;DHT22;47267;48.130;-2.040;2023-12-07T04:15:59;18.20;48.10
61398;DHT22;47267;48.130;-2.040;2023-12-07T04:18:25;18.20;48.10
61398;DHT22;47267;48.130;-2.040;2023-12-07T04:20:51;18.20;48.10
61398;DHT22;47267;48.130;-2.040;2023-12-07T04:23:16;18.20;48.10
61398;DHT22;47267;48.130;-2.040;2023-12-07T04:25:42;18.20;48.10
61398;DHT22;47267;48.130;-2.040;2023-12-07T04:28:08;18.20;48.10
61398;DHT22;47267;48.130;-2.040;2023-12-07T04:30:33;18.20;48.10
61398;DHT22;47267;48.130;-2.040;2023-12-07T04:32:59;18.20;48.10
61398;DHT22;47267;48.130;-2.040;2023-12-07T04:35:25;18.20;48.10
61398;DHT22;47267;48.130;-2.040;2023-12-07T04:37:50;18.20;48.10
61398;DHT22;47267;48.130;-2.040;2023-12-07T04:40:16;18.20;48.10
61398;DHT22;47267;48.130;-2.040;2023-12-07T04:42:42;18.20;48.10
61398;DHT22;47267;48.130;-2.040;2023-12-07T04:45:08;18.20;48.10
61398;DHT22;47267;48.130;-2.040;2023-12-07T04:47:34;18.20;48.10
61398;DHT22;47267;48.130;-2.040;2023-12-07T04:49:59;18.20;48.10
61398;DHT22;47267;48.130;-2.040;2023-12-07T04:52:25;18.20;48.10
61398;DHT22;47267;48.130;-2.040;2023-12-07T04:54:51;18.20;48.10
61398;DHT22;47267;48.130;-2.040;2023-12-07T04:57:16;18.20;48.10
61398;DHT22;47267;48.130;-2.040;2023-12-07T04:59:42;18.30;48.10
61398;DHT22;47267;48.130;-2.040;2023-12-07T05:02:14;18.20;48.10
61398;DHT22;47267;48.130;-2.040;2023-12-07T05:04:40;18.20;48.10
61398;DHT22;47267;48.130;-2.040;2023-12-07T05:07:05;18.20;48.10
61398;DHT22;47267;48.130;-2.040;2023-12-07T05:09:31;18.20;48.10
61398;DHT22;47267;48.130;-2.040;2023-12-07T05:11:57;18.20;48.10
61398;DHT22;47267;48.130;-2.040;2023-12-07T05:14:23;18.20;48.10
61398;DHT22;47267;48.130;-2.040;2023-12-07T05:16:49;18.20;48.10
61398;DHT22;47267;48.130;-2.040;2023-12-07T05:19:19;18.20;48.10
61398;DHT22;47267;48.130;-2.040;2023-12-07T05:21:46;18.20;48.10
61398;DHT22;47267;48.130;-2.040;2023-12-07T05:24:12;18.20;48.10
61398;DHT22;47267;48.130;-2.040;2023-12-07T05:26:40;18.20;48.10
61398;DHT22;47267;48.130;-2.040;2023-12-07T05:29:06;18.20;48.10
61398;DHT22;47267;48.130;-2.040;2023-12-07T05:31:31;18.20;48.10
61398;DHT22;47267;48.130;-2.040;2023-12-07T05:33:57;18.20;48.10
61398;DHT22;47267;48.130;-2.040;2023-12-07T05:36:23;18.20;48.10
61398;DHT22;47267;48.130;-2.040;2023-12-07T05:38:48;18.20;48.10
61398;DHT22;47267;48.130;-2.040;2023-12-07T05:41:14;18.30;48.10
61398;DHT22;47267;48.130;-2.040;2023-12-07T05:43:43;18.20;48.10
61398;DHT22;47267;48.130;-2.040;2023-12-07T05:46:09;18.20;48.10
61398;DHT22;47267;48.130;-2.040;2023-12-07T05:48:34;18.20;48.10
61398;DHT22;47267;48.130;-2.040;2023-12-07T05:51:02;18.20;48.10
61398;DHT22;47267;48.130;-2.040;2023-12-07T05:53:28;18.20;48.00
61398;DHT22;47267;48.130;-2.040;2023-12-07T05:55:54;18.20;48.10
61398;DHT22;47267;48.130;-2.040;2023-12-07T05:58:20;18.30;48.10
61398;DHT22;47267;48.130;-2.040;2023-12-07T06:00:45;18.30;48.10
61398;DHT22;47267;48.130;-2.040;2023-12-07T06:03:13;18.30;48.10
61398;DHT22;47267;48.130;-2.040;2023-12-07T06:05:39;18.30;48.10
61398;DHT22;47267;48.130;-2.040;2023-12-07T06:08:05;18.20;48.10
61398;DHT22;47267;48.130;-2.040;2023-12-07T06:10:31;18.30;48.10
61398;DHT22;47267;48.130;-2.040;2023-12-07T06:12:57;18.20;48.10
61398;DHT22;47267;48.130;-2.040;2023-12-07T06:15:24;18.30;48.10
61398;DHT22;47267;48.130;-2.040;2023-12-07T06:17:50;18.30;48.10
61398;DHT22;47267;48.130;-2.040;2023-12-07T06:20:16;18.30;48.10
61398;DHT22;47267;48.130;-2.040;2023-12-07T06:22:42;18.30;48.10
61398;DHT22;47267;48.130;-2.040;2023-12-07T06:25:07;18.30;48.10
61398;DHT22;47267;48.130;-2.040;2023-12-07T06:27:35;18.30;48.10
61398;DHT22;47267;48.130;-2.040;2023-12-07T06:30:00;18.30;48.10
61398;DHT22;47267;48.130;-2.040;2023-12-07T06:32:28;18.30;48.10
61398;DHT22;47267;48.130;-2.040;2023-12-07T06:34:53;18.30;48.10
61398;DHT22;47267;48.130;-2.040;2023-12-07T06:37:19;18.30;48.10
61398;DHT22;47267;48.130;-2.040;2023-12-07T06:39:45;18.30;48.10
61398;DHT22;47267;48.130;-2.040;2023-12-07T06:42:11;18.30;48.10
61398;DHT22;47267;48.130;-2.040;2023-12-07T06:44:37;18.30;48.10
61398;DHT22;47267;48.130;-2.040;2023-12-07T06:47:03;18.30;48.10
61398;DHT22;47267;48.130;-2.040;2023-12-07T06:49:30;18.30;48.20
61398;DHT22;47267;48.130;-2.040;2023-12-07T06:51:56;18.30;48.20
61398;DHT22;47267;48.130;-2.040;2023-12-07T06:54:22;18.30;48.20
61398;DHT22;47267;48.130;-2.040;2023-12-07T06:56:47;18.30;48.30
61398;DHT22;47267;48.130;-2.040;2023-12-07T06:59:13;18.30;48.30
61398;DHT22;47267;48.130;-2.040;2023-12-07T07:01:40;18.30;48.30
61398;DHT22;47267;48.130;-2.040;2023-12-07T07:04:05;18.30;48.30
61398;DHT22;47267;48.130;-2.040;2023-12-07T07:06:31;18.30;48.30
61398;DHT22;47267;48.130;-2.040;2023-12-07T07:08:56;18.30;48.30
61398;DHT22;47267;48.130;-2.040;2023-12-07T07:11:22;18.30;48.40
61398;DHT22;47267;48.130;-2.040;2023-12-07T07:13:48;18.30;48.40
61398;DHT22;47267;48.130;-2.040;2023-12-07T07:16:13;18.30;48.40
61398;DHT22;47267;48.130;-2.040;2023-12-07T07:18:40;18.30;48.40
61398;DHT22;47267;48.130;-2.040;2023-12-07T07:21:06;18.30;48.40
61398;DHT22;47267;48.130;-2.040;2023-12-07T07:23:33;18.30;48.50
61398;DHT22;47267;48.130;-2.040;2023-12-07T07:25:59;18.30;48.50
61398;DHT22;47267;48.130;-2.040;2023-12-07T07:28:24;18.30;48.50
61398;DHT22;47267;48.130;-2.040;2023-12-07T07:30:50;18.30;48.50
61398;DHT22;47267;48.130;-2.040;2023-12-07T07:33:17;18.30;48.50
61398;DHT22;47267;48.130;-2.040;2023-12-07T07:35:42;18.30;48.60
61398;DHT22;47267;48.130;-2.040;2023-12-07T07:38:09;18.30;48.60
61398;DHT22;47267;48.130;-2.040;2023-12-07T07:40:37;18.30;48.50
61398;DHT22;47267;48.130;-2.040;2023-12-07T07:43:02;18.30;48.60
61398;DHT22;47267;48.130;-2.040;2023-12-07T07:45:28;18.30;48.60
61398;DHT22;47267;48.130;-2.040;2023-12-07T07:47:54;18.30;48.60
61398;DHT22;47267;48.130;-2.040;2023-12-07T07:50:19;18.30;48.60
61398;DHT22;47267;48.130;-2.040;2023-12-07T07:52:45;18.30;48.60
61398;DHT22;47267;48.130;-2.040;2023-12-07T07:55:11;18.30;48.60
61398;DHT22;47267;48.130;-2.040;2023-12-07T07:57:37;18.40;48.70
61398;DHT22;47267;48.130;-2.040;2023-12-07T08:00:03;18.40;48.80
61398;DHT22;47267;48.130;-2.040;2023-12-07T08:02:34;18.40;48.80
61398;DHT22;47267;48.130;-2.040;2023-12-07T08:05:00;18.40;48.80
61398;DHT22;47267;48.130;-2.040;2023-12-07T08:07:26;18.40;48.90
61398;DHT22;47267;48.130;-2.040;2023-12-07T08:09:51;18.40;48.80
61398;DHT22;47267;48.130;-2.040;2023-12-07T08:12:18;18.40;48.90
61398;DHT22;47267;48.130;-2.040;2023-12-07T08:14:44;18.40;48.90
61398;DHT22;47267;48.130;-2.040;2023-12-07T08:17:11;18.40;48.90
61398;DHT22;47267;48.130;-2.040;2023-12-07T08:19:37;18.40;48.90
61398;DHT22;47267;48.130;-2.040;2023-12-07T08:22:03;18.40;49.00
61398;DHT22;47267;48.130;-2.040;2023-12-07T08:24:29;18.40;48.90
61398;DHT22;47267;48.130;-2.040;2023-12-07T08:26:55;18.40;48.90
61398;DHT22;47267;48.130;-2.040;2023-12-07T08:29:21;18.40;49.00
61398;DHT22;47267;48.130;-2.040;2023-12-07T08:31:46;18.40;49.00
61398;DHT22;47267;48.130;-2.040;2023-12-07T08:34:12;18.40;49.00
61398;DHT22;47267;48.130;-2.040;2023-12-07T08:36:38;18.50;49.10
61398;DHT22;47267;48.130;-2.040;2023-12-07T08:39:04;18.50;49.10
61398;DHT22;47267;48.130;-2.040;2023-12-07T08:41:29;18.50;49.10
61398;DHT22;47267;48.130;-2.040;2023-12-07T08:43:55;18.50;49.10
61398;DHT22;47267;48.130;-2.040;2023-12-07T08:46:21;18.50;49.10
61398;DHT22;47267;48.130;-2.040;2023-12-07T08:48:46;18.40;49.10
61398;DHT22;47267;48.130;-2.040;2023-12-07T08:51:12;18.50;49.20
61398;DHT22;47267;48.130;-2.040;2023-12-07T08:53:38;18.50;49.20
61398;DHT22;47267;48.130;-2.040;2023-12-07T08:56:04;18.50;49.20
61398;DHT22;47267;48.130;-2.040;2023-12-07T08:58:30;18.50;49.20
61398;DHT22;47267;48.130;-2.040;2023-12-07T09:00:56;18.50;49.20
61398;DHT22;47267;48.130;-2.040;2023-12-07T09:03:21;18.50;49.20
61398;DHT22;47267;48.130;-2.040;2023-12-07T09:05:51;18.50;49.20
61398;DHT22;47267;48.130;-2.040;2023-12-07T09:08:16;18.50;49.20
61398;DHT22;47267;48.130;-2.040;2023-12-07T09:10:42;18.50;49.20
61398;DHT22;47267;48.130;-2.040;2023-12-07T09:13:08;18.50;49.20
61398;DHT22;47267;48.130;-2.040;2023-12-07T09:15:33;18.40;49.10
61398;DHT22;47267;48.130;-2.040;2023-12-07T09:18:03;18.50;49.20
61398;DHT22;47267;48.130;-2.040;2023-12-07T09:20:28;18.50;49.10
61398;DHT22;47267;48.130;-2.040;2023-12-07T09:22:54;18.50;49.10
61398;DHT22;47267;48.130;-2.040;2023-12-07T09:25:22;18.40;49.10
61398;DHT22;47267;48.130;-2.040;2023-12-07T09:27:48;18.50;49.20
61398;DHT22;47267;48.130;-2.040;2023-12-07T09:30:14;18.50;49.10
61398;DHT22;47267;48.130;-2.040;2023-12-07T09:32:40;18.50;49.10
61398;DHT22;47267;48.130;-2.040;2023-12-07T09:35:08;18.50;49.10
61398;DHT22;47267;48.130;-2.040;2023-12-07T09:37:55;18.50;49.10
61398;DHT22;47267;48.130;-2.040;2023-12-07T09:40:22;18.50;49.10
61398;DHT22;47267;48.130;-2.040;2023-12-07T09:42:49;18.50;49.10
61398;DHT22;47267;48.130;-2.040;2023-12-07T09:45:15;18.50;49.10
61398;DHT22;47267;48.130;-2.040;2023-12-07T09:47:51;18.50;49.10
61398;DHT22;47267;48.130;-2.040;2023-12-07T09:50:18;18.50;49.10
61398;DHT22;47267;48.130;-2.040;2023-12-07T09:52:44;18.50;49.10
61398;DHT22;47267;48.130;-2.040;2023-12-07T09:55:09;18.50;49.10
61398;DHT22;47267;48.130;-2.040;2023-12-07T09:57:39;18.50;49.70
61398;DHT22;47267;48.130;-2.040;2023-12-07T10:00:06;18.50;49.10
61398;DHT22;47267;48.130;-2.040;2023-12-07T10:02:38;18.50;49.10
61398;DHT22;47267;48.130;-2.040;2023-12-07T10:05:07;18.50;49.10
61398;DHT22;47267;48.130;-2.040;2023-12-07T10:07:34;18.50;49.10
61398;DHT22;47267;48.130;-2.040;2023-12-07T10:10:01;18.50;49.10
61398;DHT22;47267;48.130;-2.040;2023-12-07T10:12:28;18.50;49.10
61398;DHT22;47267;48.130;-2.040;2023-12-07T10:14:54;18.50;49.10
61398;DHT22;47267;48.130;-2.040;2023-12-07T10:17:20;18.50;49.10
61398;DHT22;47267;48.130;-2.040;2023-12-07T10:19:45;18.50;49.10
61398;DHT22;47267;48.130;-2.040;2023-12-07T10:22:14;18.60;49.20
61398;DHT22;47267;48.130;-2.040;2023-12-07T10:24:42;18.60;49.10
61398;DHT22;47267;48.130;-2.040;2023-12-07T10:27:08;18.60;49.20
61398;DHT22;47267;48.130;-2.040;2023-12-07T10:29:38;18.60;49.10
61398;DHT22;47267;48.130;-2.040;2023-12-07T10:32:04;18.60;49.10
61398;DHT22;47267;48.130;-2.040;2023-12-07T10:34:32;18.60;49.10
61398;DHT22;47267;48.130;-2.040;2023-12-07T10:36:59;18.60;49.10
61398;DHT22;47267;48.130;-2.040;2023-12-07T10:39:25;18.60;49.10
61398;DHT22;47267;48.130;-2.040;2023-12-07T10:41:55;18.60;49.10
61398;DHT22;47267;48.130;-2.040;2023-12-07T10:44:26;18.60;49.10
61398;DHT22;47267;48.130;-2.040;2023-12-07T10:46:54;18.60;49.10
61398;DHT22;47267;48.130;-2.040;2023-12-07T10:49:22;18.60;49.10
61398;DHT22;47267;48.130;-2.040;2023-12-07T10:52:10;18.60;49.10
61398;DHT22;47267;48.130;-2.040;2023-12-07T10:55:03;18.60;49.10
61398;DHT22;47267;48.130;-2.040;2023-12-07T10:57:33;18.60;49.10
61398;DHT22;47267;48.130;-2.040;2023-12-07T11:00:00;18.60;49.10
61398;DHT22;47267;48.130;-2.040;2023-12-07T11:02:28;18.60;49.10
61398;DHT22;47267;48.130;-2.040;2023-12-07T11:04:57;18.60;49.10
61398;DHT22;47267;48.130;-2.040;2023-12-07T11:07:26;18.60;49.10
61398;DHT22;47267;48.130;-2.040;2023-12-07T11:10:07;18.60;49.10
61398;DHT22;47267;48.130;-2.040;2023-12-07T11:13:00;18.60;49.10
61398;DHT22;47267;48.130;-2.040;2023-12-07T11:15:32;18.60;49.10
61398;DHT22;47267;48.130;-2.040;2023-12-07T11:17:58;18.60;49.10
61398;DHT22;47267;48.130;-2.040;2023-12-07T11:20:41;18.60;49.10
61398;DHT22;47267;48.130;-2.040;2023-12-07T11:23:10;18.60;49.00
61398;DHT22;47267;48.130;-2.040;2023-12-07T11:25:37;18.60;49.00
61398;DHT22;47267;48.130;-2.040;2023-12-07T11:28:06;18.60;49.10
61398;DHT22;47267;48.130;-2.040;2023-12-07T11:30:35;18.60;49.10
61398;DHT22;47267;48.130;-2.040;2023-12-07T11:33:04;18.60;49.00
61398;DHT22;47267;48.130;-2.040;2023-12-07T11:35:30;18.60;49.10
61398;DHT22;47267;48.130;-2.040;2023-12-07T11:38:07;18.60;49.00
61398;DHT22;47267;48.130;-2.040;2023-12-07T11:40:44;18.60;49.10
61398;DHT22;47267;48.130;-2.040;2023-12-07T11:43:37;18.60;49.00
61398;DHT22;47267;48.130;-2.040;2023-12-07T11:46:09;18.60;49.00
61398;DHT22;47267;48.130;-2.040;2023-12-07T11:48:35;18.60;49.00
61398;DHT22;47267;48.130;-2.040;2023-12-07T11:51:04;18.60;49.00
61398;DHT22;47267;48.130;-2.040;2023-12-07T11:53:32;18.60;49.00
61398;DHT22;47267;48.130;-2.040;2023-12-07T11:55:59;18.60;49.00
61398;DHT22;47267;48.130;-2.040;2023-12-07T11:58:29;18.60;49.00
61398;DHT22;47267;48.130;-2.040;2023-12-07T12:00:56;18.60;49.00
61398;DHT22;47267;48.130;-2.040;2023-12-07T12:03:26;18.60;49.00
61398;DHT22;47267;48.130;-2.040;2023-12-07T12:05:52;18.60;49.00
61398;DHT22;47267;48.130;-2.040;2023-12-07T12:08:20;18.60;49.00
61398;DHT22;47267;48.130;-2.040;2023-12-07T12:10:47;18.50;48.90
61398;DHT22;47267;48.130;-2.040;2023-12-07T12:13:15;18.60;49.00
61398;DHT22;47267;48.130;-2.040;2023-12-07T12:15:41;18.60;49.00
61398;DHT22;47267;48.130;-2.040;2023-12-07T12:18:09;18.60;49.00
61398;DHT22;47267;48.130;-2.040;2023-12-07T12:20:35;18.60;49.00
61398;DHT22;47267;48.130;-2.040;2023-12-07T12:23:01;18.60;49.00
61398;DHT22;47267;48.130;-2.040;2023-12-07T12:25:28;18.60;49.00
61398;DHT22;47267;48.130;-2.040;2023-12-07T12:27:57;18.50;48.90
61398;DHT22;47267;48.130;-2.040;2023-12-07T12:30:24;18.60;49.00
61398;DHT22;47267;48.130;-2.040;2023-12-07T12:32:50;18.60;49.00
61398;DHT22;47267;48.130;-2.040;2023-12-07T12:35:16;18.50;48.90
61398;DHT22;47267;48.130;-2.040;2023-12-07T12:37:43;18.60;49.00
61398;DHT22;47267;48.130;-2.040;2023-12-07T12:40:11;18.50;49.00
61398;DHT22;47267;48.130;-2.040;2023-12-07T12:42:37;18.60;49.00
61398;DHT22;47267;48.130;-2.040;2023-12-07T12:45:08;18.60;49.00
61398;DHT22;47267;48.130;-2.040;2023-12-07T12:47:34;18.50;49.00
61398;DHT22;47267;48.130;-2.040;2023-12-07T12:50:03;18.60;49.00
61398;DHT22;47267;48.130;-2.040;2023-12-07T12:52:32;18.50;48.90
61398;DHT22;47267;48.130;-2.040;2023-12-07T12:54:58;18.60;49.00
61398;DHT22;47267;48.130;-2.040;2023-12-07T12:57:24;18.50;49.00
61398;DHT22;47267;48.130;-2.040;2023-12-07T12:59:53;18.60;49.00
61398;DHT22;47267;48.130;-2.040;2023-12-07T13:02:22;18.50;49.00
61398;DHT22;47267;48.130;-2.040;2023-12-07T13:04:48;18.50;49.00
61398;DHT22;47267;48.130;-2.040;2023-12-07T13:07:13;18.60;49.00
61398;DHT22;47267;48.130;-2.040;2023-12-07T13:09:40;18.60;49.10
61398;DHT22;47267;48.130;-2.040;2023-12-07T13:12:06;18.60;49.00
61398;DHT22;47267;48.130;-2.040;2023-12-07T13:14:32;18.50;49.00
61398;DHT22;47267;48.130;-2.040;2023-12-07T13:17:04;18.60;49.10
61398;DHT22;47267;48.130;-2.040;2023-12-07T13:19:30;18.50;49.00
61398;DHT22;47267;48.130;-2.040;2023-12-07T13:21:57;18.50;49.00
61398;DHT22;47267;48.130;-2.040;2023-12-07T13:24:22;18.60;49.10
61398;DHT22;47267;48.130;-2.040;2023-12-07T13:26:48;18.50;49.00
61398;DHT22;47267;48.130;-2.040;2023-12-07T13:29:13;18.50;49.00
61398;DHT22;47267;48.130;-2.040;2023-12-07T13:31:39;18.50;49.00
61398;DHT22;47267;48.130;-2.040;2023-12-07T13:34:05;18.60;49.10
61398;DHT22;47267;48.130;-2.040;2023-12-07T13:36:31;18.50;49.00
61398;DHT22;47267;48.130;-2.040;2023-12-07T13:38:59;18.50;49.10
61398;DHT22;47267;48.130;-2.040;2023-12-07T13:41:28;18.60;49.70
61398;DHT22;47267;48.130;-2.040;2023-12-07T13:43:53;18.50;49.00
61398;DHT22;47267;48.130;-2.040;2023-12-07T13:46:19;18.50;49.10
61398;DHT22;47267;48.130;-2.040;2023-12-07T13:48:45;18.60;49.10
61398;DHT22;47267;48.130;-2.040;2023-12-07T13:51:12;18.60;49.10
61398;DHT22;47267;48.130;-2.040;2023-12-07T13:53:38;18.60;49.10
61398;DHT22;47267;48.130;-2.040;2023-12-07T13:56:04;18.60;49.10
61398;DHT22;47267;48.130;-2.040;2023-12-07T13:58:31;18.60;49.10
61398;DHT22;47267;48.130;-2.040;2023-12-07T14:00:56;18.60;49.10
61398;DHT22;47267;48.130;-2.040;2023-12-07T14:03:22;18.50;49.10
61398;DHT22;47267;48.130;-2.040;2023-12-07T14:05:48;18.60;49.10
61398;DHT22;47267;48.130;-2.040;2023-12-07T14:08:14;18.60;49.10
61398;DHT22;47267;48.130;-2.040;2023-12-07T14:10:40;18.50;49.10
61398;DHT22;47267;48.130;-2.040;2023-12-07T14:13:06;18.60;49.10
61398;DHT22;47267;48.130;-2.040;2023-12-07T14:15:31;18.60;49.10
61398;DHT22;47267;48.130;-2.040;2023-12-07T14:18:01;18.60;49.10
61398;DHT22;47267;48.130;-2.040;2023-12-07T14:20:30;18.60;49.10
61398;DHT22;47267;48.130;-2.040;2023-12-07T14:22:56;18.60;49.10
61398;DHT22;47267;48.130;-2.040;2023-12-07T14:25:23;18.60;49.10
61398;DHT22;47267;48.130;-2.040;2023-12-07T14:27:48;18.60;49.20
61398;DHT22;47267;48.130;-2.040;2023-12-07T14:30:14;18.60;49.10
61398;DHT22;47267;48.130;-2.040;2023-12-07T14:32:42;18.60;49.10
61398;DHT22;47267;48.130;-2.040;2023-12-07T14:35:13;18.60;49.20
61398;DHT22;47267;48.130;-2.040;2023-12-07T14:37:39;18.60;49.10
61398;DHT22;47267;48.130;-2.040;2023-12-07T14:40:07;18.60;49.10
61398;DHT22;47267;48.130;-2.040;2023-12-07T14:42:34;18.60;49.10
61398;DHT22;47267;48.130;-2.040;2023-12-07T14:44:59;18.60;49.20
61398;DHT22;47267;48.130;-2.040;2023-12-07T14:47:25;18.60;49.10
61398;DHT22;47267;48.130;-2.040;2023-12-07T14:49:51;18.60;49.10
61398;DHT22;47267;48.130;-2.040;2023-12-07T14:52:16;18.60;49.10
61398;DHT22;47267;48.130;-2.040;2023-12-07T14:54:42;18.60;49.20
61398;DHT22;47267;48.130;-2.040;2023-12-07T14:57:08;18.60;49.10
61398;DHT22;47267;48.130;-2.040;2023-12-07T14:59:35;18.60;49.10
61398;DHT22;47267;48.130;-2.040;2023-12-07T15:02:01;18.60;49.10
61398;DHT22;47267;48.130;-2.040;2023-12-07T15:04:27;18.60;49.10
61398;DHT22;47267;48.130;-2.040;2023-12-07T15:06:52;18.60;49.10
61398;DHT22;47267;48.130;-2.040;2023-12-07T15:09:20;18.60;49.10
61398;DHT22;47267;48.130;-2.040;2023-12-07T15:11:46;18.60;49.10
61398;DHT22;47267;48.130;-2.040;2023-12-07T15:14:12;18.60;49.10